createdAt,value
2018-11-26T00:00:30.949Z,65.93
2018-11-26T00:02:59.953Z,67.37
2018-11-26T00:05:28.903Z,62.53
2018-11-26T00:07:57.882Z,61.20
2018-11-26T00:10:38.191Z,62.37
2018-11-26T00:13:07.107Z,53.63
2018-11-26T00:15:36.037Z,58.87
2018-11-26T00:18:05.249Z,55.20
2018-11-26T00:20:34.305Z,52.07
2018-11-26T00:23:03.311Z,61.13
2018-11-26T00:25:32.363Z,54.50
2018-11-26T00:28:01.340Z,53.93
2018-11-26T00:30:30.343Z,55.50
2018-11-26T00:32:59.314Z,56.80
2018-11-26T00:35:28.235Z,57.10
2018-11-26T00:37:57.180Z,63.10
2018-11-26T00:40:26.139Z,63.27
2018-11-26T00:43:01.565Z,59.73
2018-11-26T00:45:30.639Z,54.60
2018-11-26T00:47:59.660Z,56.67
2018-11-26T00:50:29.347Z,63.43
2018-11-26T00:52:58.753Z,60.60
2018-11-26T00:55:27.757Z,62.33
2018-11-26T00:57:56.732Z,54.73
2018-11-26T01:00:25.726Z,55.27
2018-11-26T01:02:54.708Z,54.70
2018-11-26T01:05:40.477Z,62.03
2018-11-26T01:08:09.527Z,54.03
2018-11-26T01:10:38.500Z,62.70
2018-11-26T01:13:07.722Z,57.27
2018-11-26T01:15:36.673Z,61.10
2018-11-26T01:18:06.221Z,64.73
2018-11-26T01:20:35.170Z,57.60
2018-11-26T01:23:04.279Z,65.23
2018-11-26T01:25:33.241Z,56.33
2018-11-26T01:28:02.254Z,49.27
2018-11-26T01:30:31.219Z,54.33
2018-11-26T01:33:00.138Z,38.30
2018-11-26T01:35:29.095Z,50.40
2018-11-26T01:37:58.094Z,44.90
2018-11-26T01:40:32.499Z,44.60
2018-11-26T01:43:01.926Z,39.30
2018-11-26T01:45:30.876Z,43.50
2018-11-26T01:47:59.812Z,39.03
2018-11-26T01:50:28.769Z,48.03
2018-11-26T01:52:57.730Z,48.80
2018-11-26T01:55:26.707Z,45.27
2018-11-26T01:57:55.674Z,43.73
2018-11-26T02:00:25.876Z,52.27
2018-11-26T02:02:54.911Z,47.37
2018-11-26T02:05:23.903Z,42.00
2018-11-26T02:07:52.886Z,45.33
2018-11-26T02:10:21.833Z,41.13
2018-11-26T02:12:50.750Z,43.07
2018-11-26T02:15:51.457Z,37.47
2018-11-26T02:18:20.450Z,38.33
2018-11-26T02:20:49.379Z,39.80
2018-11-26T02:23:18.320Z,43.67
2018-11-26T02:25:48.184Z,43.80
2018-11-26T02:28:17.166Z,42.83
2018-11-26T02:30:46.152Z,41.80
2018-11-26T02:33:15.081Z,41.60
2018-11-26T02:35:50.707Z,37.97
2018-11-26T02:38:19.699Z,45.30
2018-11-26T02:40:48.631Z,48.90
2018-11-26T02:43:17.556Z,47.07
2018-11-26T02:45:46.494Z,51.60
2018-11-26T02:48:15.444Z,50.07
2018-11-26T02:50:44.400Z,49.80
2018-11-26T02:53:13.353Z,50.63
2018-11-26T02:55:42.288Z,53.17
2018-11-26T02:58:11.237Z,44.43
2018-11-26T03:00:40.288Z,58.17
2018-11-26T03:03:09.220Z,50.90
2018-11-26T03:05:38.157Z,57.83
2018-11-26T03:08:07.094Z,53.23
2018-11-26T03:10:36.139Z,53.57
2018-11-26T03:13:05.144Z,51.83
2018-11-26T03:15:34.122Z,52.77
2018-11-26T03:18:03.056Z,52.63
2018-11-26T03:20:31.989Z,57.53
2018-11-26T03:23:00.907Z,54.53
2018-11-26T03:25:29.849Z,52.13
2018-11-26T03:27:58.813Z,57.60
2018-11-26T03:30:27.799Z,65.10
2018-11-26T03:32:56.729Z,56.77
2018-11-26T03:35:25.743Z,56.97
2018-11-26T03:37:54.651Z,52.10
2018-11-26T03:40:23.602Z,58.03
2018-11-26T03:42:52.547Z,55.30
2018-11-26T03:45:21.485Z,59.53
2018-11-26T03:47:50.454Z,66.40
2018-11-26T03:50:19.449Z,62.90
2018-11-26T03:52:48.384Z,59.33
2018-11-26T03:55:17.410Z,53.87
2018-11-26T03:57:46.332Z,65.43
2018-11-26T04:00:16.553Z,52.23
2018-11-26T04:02:45.466Z,49.50
2018-11-26T04:05:14.490Z,65.40
2018-11-26T04:07:43.440Z,58.20
2018-11-26T04:10:13.246Z,72.00
2018-11-26T04:12:42.229Z,63.30
2018-11-26T04:15:12.639Z,59.50
2018-11-26T04:17:41.601Z,64.30
2018-11-26T04:20:10.530Z,73.47
2018-11-26T04:22:39.453Z,66.33
2018-11-26T04:25:09.373Z,60.27
2018-11-26T04:27:38.403Z,62.90
2018-11-26T04:30:09.392Z,75.13
2018-11-26T04:32:38.998Z,73.30
2018-11-26T04:35:07.945Z,71.30
2018-11-26T04:37:36.872Z,71.57
2018-11-26T04:40:08.227Z,75.60
2018-11-26T04:42:37.173Z,77.00
2018-11-26T04:45:07.833Z,72.30
2018-11-26T04:47:37.031Z,81.87
2018-11-26T04:50:11.546Z,73.53
2018-11-26T04:52:40.544Z,73.70
2018-11-26T04:55:10.739Z,73.83
2018-11-26T04:57:42.566Z,87.63
2018-11-26T05:00:10.423Z,77.83
2018-11-26T05:02:39.412Z,72.07
2018-11-26T05:05:09.329Z,70.87
2018-11-26T05:07:38.351Z,66.47
2018-11-26T05:10:08.840Z,66.60
2018-11-26T05:12:37.832Z,72.57
2018-11-26T05:15:08.363Z,70.10
2018-11-26T05:17:38.216Z,72.43
2018-11-26T05:20:11.497Z,62.00
2018-11-26T05:22:40.466Z,74.07
2018-11-26T05:25:10.282Z,59.27
2018-11-26T05:27:39.240Z,68.63
2018-11-26T05:30:11.534Z,74.63
2018-11-26T05:32:40.484Z,70.80
2018-11-26T05:35:10.436Z,70.20
2018-11-26T05:37:39.391Z,81.00
2018-11-26T05:40:11.531Z,74.00
2018-11-26T05:42:40.659Z,83.70
2018-11-26T05:45:12.811Z,72.83
2018-11-26T05:47:41.754Z,80.43
2018-11-26T05:50:11.752Z,74.80
2018-11-26T05:52:40.999Z,85.13
2018-11-26T05:55:14.071Z,85.37
2018-11-26T05:57:43.296Z,88.00
2018-11-26T06:00:23.322Z,74.90
2018-11-26T06:02:52.229Z,66.73
2018-11-26T06:05:21.156Z,88.93
2018-11-26T06:07:50.161Z,89.77
2018-11-26T06:10:19.100Z,77.30
2018-11-26T06:12:48.067Z,66.43
2018-11-26T06:15:17.041Z,86.17
2018-11-26T06:17:45.995Z,79.77
2018-11-26T06:20:14.926Z,77.73
2018-11-26T06:22:45.107Z,91.53
2018-11-26T06:25:15.384Z,79.00
2018-11-26T06:27:44.508Z,77.80
2018-11-26T06:30:14.391Z,82.63
2018-11-26T06:32:43.526Z,101.67
2018-11-26T06:35:14.861Z,88.27
2018-11-26T06:37:43.798Z,80.37
2018-11-26T06:40:13.344Z,87.30
2018-11-26T06:42:42.298Z,99.10
2018-11-26T06:45:18.218Z,100.00
2018-11-26T06:47:47.174Z,88.33
2018-11-26T06:50:17.092Z,89.80
2018-11-26T06:52:46.210Z,90.20
2018-11-26T06:55:16.415Z,84.53
2018-11-26T06:57:45.366Z,75.27
2018-11-26T07:00:16.671Z,84.47
2018-11-26T07:02:45.799Z,80.33
2018-11-26T07:05:16.862Z,74.27
2018-11-26T07:07:45.926Z,82.87
2018-11-26T07:10:15.423Z,79.37
2018-11-26T07:12:44.392Z,71.33
2018-11-26T07:15:18.103Z,69.93
2018-11-26T07:17:48.154Z,58.70
2018-11-26T07:20:19.108Z,58.77
2018-11-26T07:22:48.092Z,64.97
2018-11-26T07:25:19.464Z,69.03
2018-11-26T07:27:50.060Z,67.60
2018-11-26T07:30:20.644Z,86.13
2018-11-26T07:32:49.902Z,65.53
2018-11-26T07:35:19.013Z,76.17
2018-11-26T07:37:47.961Z,73.90
2018-11-26T07:40:21.035Z,53.50
2018-11-26T07:44:05.288Z,53.83
2018-11-26T07:46:34.259Z,48.50
2018-11-26T07:49:03.213Z,49.57
2018-11-26T07:51:32.148Z,49.43
2018-11-26T07:54:01.672Z,55.33
2018-11-26T07:56:30.827Z,45.43
2018-11-26T07:58:59.812Z,56.50
2018-11-26T08:01:28.783Z,51.37
2018-11-26T08:03:57.794Z,45.93
2018-11-26T08:06:26.727Z,57.20
2018-11-26T08:08:55.737Z,60.40
2018-11-26T08:11:24.701Z,57.07
2018-11-26T08:13:53.711Z,57.43
2018-11-26T08:16:22.636Z,50.03
2018-11-26T08:18:51.639Z,54.07
2018-11-26T08:21:20.626Z,60.17
2018-11-26T08:23:49.656Z,61.60
2018-11-26T08:26:18.593Z,50.37
2018-11-26T08:28:47.529Z,56.83
2018-11-26T08:31:16.470Z,49.70
2018-11-26T08:33:45.410Z,45.90
2018-11-26T08:36:14.799Z,58.77
2018-11-26T08:38:45.829Z,57.17
2018-11-26T08:41:18.627Z,51.97
2018-11-26T08:43:52.879Z,54.67
2018-11-26T08:46:27.136Z,54.70
2018-11-26T08:49:02.509Z,54.60
2018-11-26T08:51:31.415Z,61.60
2018-11-26T08:54:00.434Z,62.37
2018-11-26T08:56:30.021Z,50.77
2018-11-26T08:58:58.984Z,48.30
2018-11-26T09:01:39.109Z,49.80
2018-11-26T09:04:15.173Z,62.47
2018-11-26T09:06:45.423Z,57.90
2018-11-26T09:09:14.442Z,55.93
2018-11-26T09:11:43.638Z,59.30
2018-11-26T09:14:12.718Z,60.10
2018-11-26T09:16:41.774Z,56.87
2018-11-26T09:19:10.875Z,63.50
2018-11-26T09:21:39.950Z,70.00
2018-11-26T09:24:08.984Z,68.10
2018-11-26T09:26:39.152Z,49.33
2018-11-26T09:29:08.686Z,63.03
2018-11-26T09:31:38.107Z,61.00
2018-11-26T09:34:07.402Z,69.63
2018-11-26T09:36:36.348Z,57.00
2018-11-26T09:39:10.294Z,61.43
2018-11-26T09:41:40.238Z,64.07
2018-11-26T09:44:08.969Z,72.63
2018-11-26T09:46:37.901Z,67.40
2018-11-26T09:49:06.875Z,68.47
2018-11-26T09:51:41.922Z,66.70
2018-11-26T09:54:04.758Z,57.33
2018-11-26T09:56:33.696Z,63.70
2018-11-26T09:59:09.423Z,54.87
2018-11-26T10:01:38.394Z,57.00
2018-11-26T10:04:07.370Z,63.47
2018-11-26T10:06:36.315Z,64.50
2018-11-26T10:09:09.313Z,59.77
2018-11-26T10:11:38.304Z,60.67
2018-11-26T10:14:08.305Z,61.20
2018-11-26T10:16:37.484Z,56.67
2018-11-26T10:19:06.448Z,66.97
2018-11-26T10:21:36.386Z,59.90
2018-11-26T10:24:05.679Z,65.30
2018-11-26T10:26:34.677Z,70.20
2018-11-26T10:29:03.600Z,66.17
2018-11-26T10:31:32.702Z,66.53
2018-11-26T10:34:01.932Z,54.53
2018-11-26T10:36:31.014Z,71.73
2018-11-26T10:38:59.959Z,61.83
2018-11-26T10:41:29.100Z,63.30
2018-11-26T10:43:58.038Z,70.60
2018-11-26T10:46:27.063Z,66.43
2018-11-26T10:48:56.192Z,62.50
2018-11-26T10:51:25.724Z,78.37
2018-11-26T10:53:54.736Z,55.67
2018-11-26T10:56:23.705Z,63.03
2018-11-26T10:58:52.749Z,57.60
2018-11-26T11:01:27.048Z,54.63
2018-11-26T11:03:55.983Z,62.40
2018-11-26T11:06:29.293Z,51.73
2018-11-26T11:09:03.063Z,53.53
2018-11-26T11:11:36.382Z,48.80
2018-11-26T11:14:07.127Z,57.97
2018-11-26T11:16:37.808Z,52.23
2018-11-26T11:19:08.512Z,51.43
2018-11-26T11:21:40.332Z,51.33
2018-11-26T11:24:13.155Z,45.53
2018-11-26T11:26:45.401Z,50.37
2018-11-26T11:29:17.490Z,41.20
2018-11-26T11:31:48.072Z,49.53
2018-11-26T11:34:17.983Z,50.67
2018-11-26T11:36:48.711Z,47.50
2018-11-26T11:39:18.768Z,45.50
2018-11-26T11:41:48.087Z,41.63
2018-11-26T11:44:23.239Z,43.83
2018-11-26T11:46:53.596Z,56.90
2018-11-26T11:49:23.898Z,48.33
2018-11-26T11:51:54.869Z,40.43
2018-11-26T11:54:25.744Z,42.37
2018-11-26T11:56:55.080Z,39.63
2018-11-26T11:59:24.090Z,38.00
2018-11-26T12:01:55.833Z,36.60
2018-11-26T12:04:24.850Z,39.40
2018-11-26T12:06:53.941Z,44.97
2018-11-26T12:09:22.935Z,36.00
2018-11-26T12:11:51.950Z,35.53
2018-11-26T12:14:21.033Z,41.07
2018-11-26T12:16:50.071Z,34.80
2018-11-26T12:19:19.111Z,45.87
2018-11-26T12:21:48.142Z,37.33
2018-11-26T12:24:17.186Z,38.00
2018-11-26T12:26:46.215Z,38.33
2018-11-26T12:29:15.297Z,49.37
2018-11-26T12:31:44.302Z,43.33
2018-11-26T12:34:13.355Z,43.93
2018-11-26T12:36:42.345Z,51.10
2018-11-26T12:39:11.528Z,41.90
2018-11-26T12:41:40.639Z,44.13
2018-11-26T12:44:09.750Z,39.97
2018-11-26T12:46:38.855Z,40.40
2018-11-26T12:49:08.024Z,47.60
2018-11-26T12:51:37.026Z,45.83
2018-11-26T12:54:06.418Z,46.80
2018-11-26T12:56:35.458Z,44.67
2018-11-26T12:59:04.513Z,47.10
2018-11-26T13:01:33.528Z,47.23
2018-11-26T13:04:02.646Z,46.10
2018-11-26T13:06:31.721Z,46.27
2018-11-26T13:09:00.760Z,42.67
2018-11-26T13:11:29.778Z,41.53
2018-11-26T13:13:58.813Z,50.27
2018-11-26T13:16:28.004Z,48.27
2018-11-26T13:18:57.103Z,42.33
2018-11-26T13:21:26.224Z,45.20
2018-11-26T13:23:55.343Z,41.70
2018-11-26T13:26:24.338Z,49.07
2018-11-26T13:28:53.370Z,52.57
2018-11-26T13:31:23.003Z,47.37
2018-11-26T13:33:52.010Z,57.47
2018-11-26T13:36:21.013Z,42.53
2018-11-26T13:38:50.046Z,43.23
2018-11-26T13:41:19.047Z,43.27
2018-11-26T13:43:48.096Z,43.70
2018-11-26T13:46:17.110Z,43.33
2018-11-26T13:48:46.123Z,52.23
2018-11-26T13:51:15.196Z,52.80
2018-11-26T13:53:44.192Z,44.70
2018-11-26T13:56:13.258Z,54.20
2018-11-26T13:58:42.296Z,44.10
2018-11-26T14:01:11.339Z,48.17
2018-11-26T14:03:40.307Z,46.20
2018-11-26T14:06:09.324Z,45.93
2018-11-26T14:08:38.349Z,52.03
2018-11-26T14:11:07.371Z,47.40
2018-11-26T14:13:36.370Z,48.63
2018-11-26T14:16:05.476Z,50.10
2018-11-26T14:18:34.477Z,51.57
2018-11-26T14:21:03.578Z,52.87
2018-11-26T14:23:32.565Z,44.20
2018-11-26T14:26:01.627Z,51.40
2018-11-26T14:28:30.675Z,50.30
2018-11-26T14:30:59.825Z,48.53
2018-11-26T14:33:28.834Z,53.97
2018-11-26T14:35:57.888Z,53.10
2018-11-26T14:38:26.933Z,55.00
2018-11-26T14:40:55.960Z,54.80
2018-11-26T14:43:24.982Z,55.77
2018-11-26T14:45:54.012Z,53.03
2018-11-26T14:48:23.014Z,53.90
2018-11-26T14:50:52.056Z,56.83
2018-11-26T14:53:21.089Z,62.73
2018-11-26T14:55:50.141Z,45.93
2018-11-26T14:58:19.221Z,51.93
2018-11-26T15:00:48.336Z,48.83
2018-11-26T15:03:17.358Z,55.47
2018-11-26T15:05:46.476Z,52.07
2018-11-26T15:08:16.722Z,61.00
2018-11-26T15:10:45.845Z,52.23
2018-11-26T15:13:15.454Z,58.77
2018-11-26T15:15:44.509Z,53.53
2018-11-26T15:18:13.546Z,53.77
2018-11-26T15:20:42.574Z,55.43
2018-11-26T15:23:11.610Z,56.20
2018-11-26T15:25:41.062Z,54.00
2018-11-26T15:28:12.101Z,47.87
2018-11-26T15:30:41.137Z,45.47
2018-11-26T15:33:10.195Z,58.57
2018-11-26T15:35:39.211Z,49.50
2018-11-26T15:38:08.509Z,43.77
2018-11-26T15:40:37.797Z,47.97
2018-11-26T15:43:07.081Z,49.10
2018-11-26T15:45:36.658Z,48.07
2018-11-26T15:48:09.145Z,47.57
2018-11-26T15:50:38.274Z,48.03
2018-11-26T15:53:08.271Z,54.27
2018-11-26T15:55:37.389Z,43.97
2018-11-26T15:58:07.218Z,55.40
2018-11-26T16:00:36.224Z,37.97
2018-11-26T16:03:05.903Z,42.70
2018-11-26T16:05:34.968Z,51.37
2018-11-26T16:08:07.780Z,44.30
2018-11-26T16:10:36.778Z,50.13
2018-11-26T16:13:07.479Z,46.20
2018-11-26T16:15:39.049Z,49.43
2018-11-26T16:18:11.501Z,51.00
2018-11-26T16:20:40.538Z,48.77
2018-11-26T16:23:10.394Z,47.83
2018-11-26T16:25:41.126Z,50.83
2018-11-26T16:28:11.668Z,49.37
2018-11-26T16:30:40.786Z,53.93
2018-11-26T16:33:10.782Z,52.23
2018-11-26T16:35:39.816Z,53.10
2018-11-26T16:38:10.114Z,49.90
2018-11-26T16:40:39.111Z,52.23
2018-11-26T16:43:08.721Z,53.00
2018-11-26T16:45:37.947Z,60.33
2018-11-26T16:48:09.895Z,52.97
2018-11-26T16:50:38.902Z,48.60
2018-11-26T16:53:08.206Z,48.67
2018-11-26T16:55:37.230Z,41.73
2018-11-26T16:58:06.222Z,49.20
2018-11-26T17:00:35.238Z,55.23
2018-11-26T17:03:04.252Z,53.20
2018-11-26T17:09:14.093Z,51.60
2018-11-26T17:11:44.262Z,50.97
2018-11-26T17:14:13.282Z,52.13
2018-11-26T17:16:42.282Z,53.20
2018-11-26T17:19:11.291Z,56.80
2018-11-26T17:21:40.333Z,57.50
2018-11-26T17:24:09.349Z,50.27
2018-11-26T17:26:38.351Z,45.50
2018-11-26T17:29:08.181Z,52.23
2018-11-26T17:31:37.195Z,45.53
2018-11-26T17:34:06.582Z,47.80
2018-11-26T17:36:35.584Z,52.70
2018-11-26T17:39:06.986Z,52.97
2018-11-26T17:41:36.036Z,53.10
2018-11-26T17:44:05.088Z,58.07
2018-11-26T17:46:34.093Z,50.90
2018-11-26T17:49:03.108Z,50.77
2018-11-26T17:51:32.106Z,63.33
2018-11-26T17:54:01.139Z,58.93
2018-11-26T17:56:30.166Z,64.30
2018-11-26T17:58:59.158Z,58.63
2018-11-26T18:01:36.804Z,51.13
2018-11-26T18:04:07.087Z,56.73
2018-11-26T18:06:36.090Z,58.57
2018-11-26T18:09:08.789Z,54.13
2018-11-26T18:11:37.915Z,60.27
2018-11-26T18:14:07.771Z,56.20
2018-11-26T18:16:36.793Z,55.27
2018-11-26T18:19:06.424Z,62.50
2018-11-26T18:21:36.932Z,52.90
2018-11-26T18:24:11.651Z,61.37
2018-11-26T18:26:40.971Z,60.33
2018-11-26T18:29:10.120Z,59.43
2018-11-26T18:31:39.973Z,55.23
2018-11-26T18:34:09.054Z,51.10
2018-11-26T18:36:38.062Z,62.57
2018-11-26T18:39:09.570Z,49.40
2018-11-26T18:41:38.571Z,43.97
2018-11-26T18:44:11.037Z,49.53
2018-11-26T18:46:40.086Z,47.90
2018-11-26T18:49:09.139Z,50.30
2018-11-26T18:51:38.242Z,47.87
2018-11-26T18:54:07.223Z,56.50
2018-11-26T18:56:36.296Z,50.80
2018-11-26T18:59:05.396Z,53.73
2018-11-26T19:01:34.404Z,48.77
2018-11-26T19:04:03.422Z,56.90
2018-11-26T19:06:32.444Z,44.87
2018-11-26T19:09:01.468Z,44.60
2018-11-26T19:11:30.514Z,48.03
2018-11-26T19:14:10.518Z,47.50
2018-11-26T19:16:44.012Z,48.17
2018-11-26T19:19:13.010Z,54.23
2018-11-26T19:21:42.046Z,45.23
2018-11-26T19:24:11.116Z,50.47
2018-11-26T19:26:40.138Z,54.20
2018-11-26T19:29:09.252Z,48.73
2018-11-26T19:31:38.296Z,47.57
2018-11-26T19:34:07.291Z,47.70
2018-11-26T19:36:36.310Z,45.83
2018-11-26T19:39:08.259Z,43.83
2018-11-26T19:41:37.756Z,51.03
2018-11-26T19:44:06.769Z,53.27
2018-11-26T19:46:35.792Z,54.20
2018-11-26T19:49:04.826Z,50.10
2018-11-26T19:51:33.859Z,47.87
2018-11-26T19:54:02.866Z,40.23
2018-11-26T19:56:31.876Z,44.90
2018-11-26T19:59:00.885Z,52.37
2018-11-26T20:01:29.908Z,42.30
2018-11-26T20:04:10.290Z,48.20
2018-11-26T20:06:39.846Z,55.30
2018-11-26T20:09:09.700Z,45.17
2018-11-26T20:11:38.715Z,48.00
2018-11-26T20:14:25.903Z,43.73
2018-11-26T20:16:52.070Z,47.27
2018-11-26T20:19:22.914Z,55.47
2018-11-26T20:21:51.986Z,51.27
2018-11-26T20:24:20.986Z,46.67
2018-11-26T20:26:50.039Z,44.40
2018-11-26T20:29:19.060Z,39.77
2018-11-26T20:32:01.487Z,45.40
2018-11-26T20:34:31.373Z,47.53
2018-11-26T20:37:00.394Z,42.47
2018-11-26T20:39:29.426Z,55.13
2018-11-26T20:41:58.470Z,46.97
2018-11-26T20:44:27.488Z,38.40
2018-11-26T20:46:56.490Z,42.10
2018-11-26T20:49:25.516Z,45.30
2018-11-26T20:51:54.551Z,37.17
2018-11-26T20:54:23.616Z,44.20
2018-11-26T20:56:52.618Z,44.70
2018-11-26T20:59:21.646Z,40.90
2018-11-26T21:01:50.662Z,41.50
2018-11-26T21:04:19.675Z,38.20
2018-11-26T21:06:48.667Z,44.97
2018-11-26T21:09:17.691Z,40.87
2018-11-26T21:11:46.694Z,35.77
2018-11-26T21:14:15.756Z,41.70
2018-11-26T21:16:44.778Z,35.63
2018-11-26T21:19:20.581Z,41.10
2018-11-26T21:21:49.625Z,40.43
2018-11-26T21:24:18.836Z,41.77
2018-11-26T21:26:47.863Z,40.73
2018-11-26T21:29:17.364Z,38.80
2018-11-26T21:31:46.507Z,39.77
2018-11-26T21:34:15.533Z,37.10
2018-11-26T21:36:44.640Z,38.83
2018-11-26T21:39:13.765Z,36.70
2018-11-26T21:41:42.818Z,33.67
2018-11-26T21:44:11.956Z,33.77
2018-11-26T21:46:41.071Z,37.30
2018-11-26T21:49:10.142Z,34.57
2018-11-26T21:51:41.762Z,35.77
2018-11-26T21:54:10.870Z,33.40
2018-11-26T21:56:40.054Z,31.70
2018-11-26T21:59:09.121Z,34.10
2018-11-26T22:01:38.131Z,34.20
2018-11-26T22:04:08.327Z,38.93
2018-11-26T22:06:37.450Z,46.37
2018-11-26T22:09:09.516Z,41.20
2018-11-26T22:11:38.579Z,43.37
2018-11-26T22:14:07.684Z,42.87
2018-11-26T22:16:36.722Z,38.30
2018-11-26T22:19:06.734Z,37.40
2018-11-26T22:21:36.158Z,37.83
2018-11-26T22:24:05.613Z,34.73
2018-11-26T22:26:34.704Z,39.50
2018-11-26T22:29:03.781Z,37.90
2018-11-26T22:31:32.809Z,32.07
2018-11-26T22:34:01.858Z,36.70
2018-11-26T22:36:30.854Z,35.57
2018-11-26T22:39:00.929Z,32.77
2018-11-26T22:41:29.936Z,31.10
2018-11-26T22:43:58.971Z,39.00
2018-11-26T22:46:27.978Z,36.30
2018-11-26T22:48:57.039Z,34.93
2018-11-26T22:51:26.132Z,34.80
2018-11-26T22:53:55.161Z,36.93
2018-11-26T22:56:24.238Z,37.20
2018-11-26T22:58:53.256Z,36.70
2018-11-26T23:01:22.286Z,35.53
2018-11-26T23:03:51.325Z,36.77
2018-11-26T23:06:20.333Z,33.40
2018-11-26T23:08:49.322Z,38.00
2018-11-26T23:11:18.340Z,37.07
2018-11-26T23:16:13.633Z,39.50
2018-11-26T23:18:42.637Z,37.40
2018-11-26T23:21:11.621Z,35.50
2018-11-26T23:23:40.564Z,43.20
2018-11-26T23:26:09.531Z,34.40
2018-11-26T23:28:38.472Z,37.73
2018-11-26T23:31:07.483Z,33.43
2018-11-26T23:33:36.432Z,32.53
2018-11-26T23:36:05.415Z,29.97
2018-11-26T23:38:34.440Z,32.53
2018-11-26T23:41:03.399Z,30.00
2018-11-26T23:43:32.334Z,35.33
2018-11-26T23:46:01.327Z,29.27
2018-11-26T23:48:30.311Z,29.87
2018-11-26T23:50:59.295Z,34.43
2018-11-26T23:53:28.251Z,36.23
2018-11-26T23:55:57.251Z,32.90
2018-11-26T23:58:26.235Z,36.90
